createdAt,value
2017-10-24T00:01:31.068Z,11.70
2017-10-24T00:04:00.006Z,11.60
2017-10-24T00:06:29.723Z,11.60
2017-10-24T00:08:58.654Z,11.50
2017-10-24T00:11:27.617Z,11.50
2017-10-24T00:13:56.563Z,11.50
2017-10-24T00:16:26.272Z,11.50
2017-10-24T00:18:55.191Z,11.40
2017-10-24T00:21:24.555Z,11.30
2017-10-24T00:23:53.871Z,11.10
2017-10-24T00:26:23.583Z,10.90
2017-10-24T00:28:52.536Z,10.90
2017-10-24T00:31:21.511Z,10.80
2017-10-24T00:33:50.446Z,10.80
2017-10-24T00:36:19.782Z,10.90
2017-10-24T00:38:48.747Z,10.90
2017-10-24T00:41:17.674Z,10.90
2017-10-24T00:43:47.390Z,10.90
2017-10-24T00:46:17.088Z,11.00
2017-10-24T00:48:46.805Z,11.00
2017-10-24T00:51:16.520Z,11.00
2017-10-24T00:53:46.236Z,11.00
2017-10-24T00:56:15.189Z,10.90
2017-10-24T00:58:44.151Z,11.00
2017-10-24T01:01:13.486Z,10.90
2017-10-24T01:03:42.461Z,10.80
2017-10-24T01:06:11.429Z,10.80
2017-10-24T01:08:40.383Z,10.90
2017-10-24T01:11:10.209Z,10.80
2017-10-24T01:13:39.928Z,10.80
2017-10-24T01:16:09.642Z,10.80
2017-10-24T01:18:38.624Z,10.80
2017-10-24T01:21:07.559Z,10.80
2017-10-24T01:23:36.915Z,10.90
2017-10-24T01:26:06.606Z,10.90
2017-10-24T01:28:35.589Z,10.80
2017-10-24T01:31:04.509Z,10.70
2017-10-24T01:33:33.439Z,10.80
2017-10-24T01:36:02.396Z,10.80
2017-10-24T01:38:32.465Z,10.80
2017-10-24T01:41:01.428Z,10.90
2017-10-24T01:43:31.138Z,10.90
2017-10-24T01:46:00.094Z,10.90
2017-10-24T01:48:29.029Z,11.00
2017-10-24T01:50:57.974Z,11.00
2017-10-24T01:53:26.900Z,11.00
2017-10-24T01:55:55.871Z,11.00
2017-10-24T01:58:24.812Z,10.90
2017-10-24T02:00:53.764Z,10.80
2017-10-24T02:03:22.785Z,10.60
2017-10-24T02:05:51.788Z,10.60
2017-10-24T02:08:21.496Z,10.70
2017-10-24T02:10:50.441Z,10.90
2017-10-24T02:13:19.376Z,11.00
2017-10-24T02:15:48.336Z,11.00
2017-10-24T02:18:18.054Z,11.00
2017-10-24T02:20:47.004Z,11.00
2017-10-24T02:23:15.904Z,11.00
2017-10-24T02:25:44.893Z,11.00
2017-10-24T02:28:13.832Z,11.10
2017-10-24T02:30:42.789Z,11.20
2017-10-24T02:33:11.727Z,11.10
2017-10-24T02:35:41.464Z,11.10
2017-10-24T02:38:10.410Z,11.20
2017-10-24T02:40:39.363Z,11.20
2017-10-24T02:43:08.707Z,11.30
2017-10-24T02:45:37.658Z,11.30
2017-10-24T02:48:06.611Z,11.30
2017-10-24T02:50:36.296Z,11.40
2017-10-24T02:53:05.234Z,11.40
2017-10-24T02:55:34.232Z,11.40
2017-10-24T02:58:03.548Z,11.50
2017-10-24T03:00:32.556Z,11.50
2017-10-24T03:03:01.499Z,11.50
2017-10-24T03:05:30.497Z,11.50
2017-10-24T03:07:59.444Z,11.50
2017-10-24T03:10:29.281Z,11.50
2017-10-24T03:12:58.977Z,11.50
2017-10-24T03:15:28.725Z,11.50
2017-10-24T03:17:57.696Z,11.60
2017-10-24T03:20:26.691Z,11.50
2017-10-24T03:22:55.637Z,11.50
2017-10-24T03:25:24.616Z,11.50
2017-10-24T03:27:53.559Z,11.50
2017-10-24T03:30:23.281Z,11.50
2017-10-24T03:32:52.738Z,11.50
2017-10-24T03:35:21.778Z,11.50
2017-10-24T03:37:50.723Z,11.60
2017-10-24T03:40:19.701Z,11.60
2017-10-24T03:42:48.664Z,11.60
2017-10-24T03:45:17.624Z,11.60
2017-10-24T03:47:46.591Z,11.60
2017-10-24T03:50:16.347Z,11.60
2017-10-24T03:52:45.695Z,11.70
2017-10-24T03:55:14.912Z,11.60
2017-10-24T03:57:43.835Z,11.60
2017-10-24T04:00:12.810Z,11.70
2017-10-24T04:02:41.785Z,11.60
2017-10-24T04:05:11.537Z,11.60
2017-10-24T04:07:40.499Z,11.60
2017-10-24T04:10:09.477Z,11.70
2017-10-24T04:12:39.213Z,11.70
2017-10-24T04:15:08.153Z,11.60
2017-10-24T04:17:37.116Z,11.60
2017-10-24T04:20:06.125Z,11.70
2017-10-24T04:22:35.088Z,11.70
2017-10-24T04:25:04.801Z,11.80
2017-10-24T04:27:34.532Z,11.80
2017-10-24T04:30:03.491Z,11.70
2017-10-24T04:32:32.462Z,11.80
2017-10-24T04:35:01.409Z,11.80
2017-10-24T04:37:30.800Z,11.80
2017-10-24T04:40:00.600Z,11.80
2017-10-24T04:42:29.565Z,11.90
2017-10-24T04:44:58.524Z,11.90
2017-10-24T04:47:27.914Z,11.80
2017-10-24T04:49:56.852Z,11.90
2017-10-24T04:52:25.796Z,12.00
2017-10-24T04:54:55.192Z,11.90
2017-10-24T04:57:24.127Z,11.90
2017-10-24T04:59:53.572Z,12.00
2017-10-24T05:02:22.516Z,12.00
2017-10-24T05:04:52.263Z,12.00
2017-10-24T05:07:21.211Z,12.00
2017-10-24T05:09:50.588Z,12.10
2017-10-24T05:12:19.537Z,12.10
2017-10-24T05:14:48.522Z,12.10
2017-10-24T05:17:17.482Z,12.10
2017-10-24T05:19:47.254Z,12.20
2017-10-24T05:22:16.990Z,12.20
2017-10-24T05:24:46.685Z,12.10
2017-10-24T05:27:15.622Z,12.10
2017-10-24T05:29:44.592Z,12.10
2017-10-24T05:32:14.297Z,12.20
2017-10-24T05:34:43.655Z,12.20
2017-10-24T05:37:12.604Z,12.20
2017-10-24T05:39:41.967Z,12.20
2017-10-24T05:42:10.873Z,12.20
2017-10-24T05:44:40.612Z,12.20
2017-10-24T05:47:09.555Z,12.20
2017-10-24T05:49:38.514Z,12.20
2017-10-24T05:52:07.464Z,12.20
2017-10-24T05:54:36.527Z,12.10
2017-10-24T05:57:05.572Z,12.10
2017-10-24T05:59:34.516Z,12.20
2017-10-24T06:02:03.473Z,12.30
2017-10-24T06:04:32.448Z,12.20
2017-10-24T06:07:01.399Z,12.10
2017-10-24T06:09:30.752Z,12.20
2017-10-24T06:11:59.707Z,12.30
2017-10-24T06:14:29.437Z,12.20
2017-10-24T06:16:58.368Z,12.20
2017-10-24T06:19:27.338Z,12.20
2017-10-24T06:21:57.415Z,12.20
2017-10-24T06:24:27.142Z,12.30
2017-10-24T06:26:56.993Z,12.20
2017-10-24T06:29:27.470Z,12.20
2017-10-24T06:31:56.435Z,12.30
2017-10-24T06:34:25.803Z,12.40
2017-10-24T06:36:54.738Z,12.40
2017-10-24T06:39:24.483Z,12.40
2017-10-24T06:41:53.532Z,12.40
2017-10-24T06:44:23.269Z,12.50
2017-10-24T06:46:53.440Z,12.40
2017-10-24T06:49:23.094Z,12.40
2017-10-24T06:51:52.070Z,12.40
2017-10-24T06:54:21.782Z,12.50
2017-10-24T06:56:51.150Z,12.40
2017-10-24T06:59:20.487Z,12.50
2017-10-24T07:01:49.463Z,12.50
2017-10-24T07:04:18.395Z,12.50
2017-10-24T07:06:47.333Z,12.50
2017-10-24T07:09:16.345Z,12.50
2017-10-24T07:11:46.096Z,12.60
2017-10-24T07:14:15.099Z,12.50
2017-10-24T07:16:44.098Z,12.60
2017-10-24T07:19:13.470Z,12.60
2017-10-24T07:21:42.423Z,12.70
2017-10-24T07:24:12.165Z,12.60
2017-10-24T07:26:41.502Z,12.60
2017-10-24T07:29:10.471Z,12.60
2017-10-24T07:31:39.430Z,12.60
2017-10-24T07:34:08.451Z,12.60
2017-10-24T07:36:37.394Z,12.60
2017-10-24T07:39:06.381Z,12.60
2017-10-24T07:41:35.370Z,12.60
2017-10-24T07:44:04.355Z,12.60
2017-10-24T07:46:33.303Z,12.60
2017-10-24T07:49:03.079Z,12.70
2017-10-24T07:51:32.794Z,12.60
2017-10-24T07:54:02.542Z,12.70
2017-10-24T07:56:31.500Z,12.60
2017-10-24T07:59:00.453Z,12.70
2017-10-24T08:01:29.494Z,12.80
2017-10-24T08:03:58.441Z,12.70
2017-10-24T08:06:27.456Z,12.80
2017-10-24T08:08:57.162Z,12.70
2017-10-24T08:11:26.224Z,12.70
2017-10-24T08:13:55.173Z,12.70
2017-10-24T08:16:24.157Z,12.80
2017-10-24T08:18:53.120Z,12.90
2017-10-24T08:21:22.856Z,13.00
2017-10-24T08:23:51.798Z,12.90
2017-10-24T08:26:20.781Z,13.00
2017-10-24T08:28:49.736Z,13.00
2017-10-24T08:31:18.705Z,13.00
2017-10-24T08:33:48.492Z,13.00
2017-10-24T08:36:17.481Z,13.00
2017-10-24T08:38:46.460Z,13.00
2017-10-24T08:41:15.431Z,13.10
2017-10-24T08:43:54.310Z,13.10
2017-10-24T08:46:24.089Z,13.20
2017-10-24T08:48:53.077Z,13.20
2017-10-24T08:51:22.052Z,13.00
2017-10-24T08:53:50.997Z,13.10
2017-10-24T08:56:20.748Z,13.00
2017-10-24T08:58:49.740Z,13.00
2017-10-24T09:01:26.281Z,12.90
2017-10-24T09:03:55.991Z,13.00
2017-10-24T09:06:33.518Z,13.00
2017-10-24T09:09:27.191Z,12.90
2017-10-24T09:12:07.711Z,13.00
2017-10-24T09:14:36.675Z,13.00
2017-10-24T09:17:43.973Z,13.10
2017-10-24T09:20:13.701Z,13.20
2017-10-24T09:22:42.707Z,13.20
2017-10-24T09:25:11.698Z,13.20
2017-10-24T09:27:40.665Z,13.20
2017-10-24T09:30:10.389Z,13.20
2017-10-24T09:32:39.387Z,13.20
2017-10-24T09:35:08.406Z,13.20
2017-10-24T09:37:37.474Z,13.40
2017-10-24T09:40:06.466Z,13.40
2017-10-24T09:42:35.426Z,13.50
2017-10-24T09:45:04.393Z,13.60
2017-10-24T09:47:34.502Z,13.60
2017-10-24T09:50:03.849Z,13.60
2017-10-24T09:52:33.587Z,13.60
2017-10-24T09:55:02.567Z,13.60
2017-10-24T09:57:32.559Z,13.70
2017-10-24T10:00:01.549Z,13.70
2017-10-24T10:02:31.393Z,13.70
2017-10-24T10:05:00.341Z,13.50
2017-10-24T10:07:29.775Z,13.60
2017-10-24T10:09:58.754Z,13.60
2017-10-24T10:12:28.489Z,13.60
2017-10-24T10:14:58.330Z,13.70
2017-10-24T10:17:27.677Z,13.60
2017-10-24T10:19:56.665Z,13.60
2017-10-24T10:22:26.378Z,13.60
2017-10-24T10:24:56.118Z,13.60
2017-10-24T10:27:25.172Z,13.60
2017-10-24T10:29:54.225Z,13.70
2017-10-24T10:32:23.272Z,13.70
2017-10-24T10:34:52.994Z,13.70
2017-10-24T10:37:21.963Z,13.70
2017-10-24T10:39:51.767Z,13.80
2017-10-24T10:42:20.684Z,13.80
2017-10-24T10:44:49.637Z,13.80
2017-10-24T10:47:18.610Z,13.80
2017-10-24T10:49:47.560Z,13.80
2017-10-24T10:52:16.575Z,13.90
2017-10-24T10:54:45.531Z,13.90
2017-10-24T10:57:17.686Z,14.00
2017-10-24T10:59:47.599Z,14.00
2017-10-24T11:02:16.540Z,14.00
2017-10-24T11:04:45.553Z,13.90
2017-10-24T11:07:14.639Z,13.90
2017-10-24T11:09:43.632Z,14.00
2017-10-24T11:12:13.403Z,14.00
2017-10-24T11:14:42.362Z,14.00
2017-10-24T11:17:12.104Z,14.00
2017-10-24T11:19:41.445Z,14.10
2017-10-24T11:22:12.839Z,14.10
2017-10-24T11:24:42.621Z,14.00
2017-10-24T11:27:11.613Z,14.00
2017-10-24T11:29:40.569Z,14.00
2017-10-24T11:32:09.554Z,14.10
2017-10-24T11:34:39.322Z,14.10
2017-10-24T11:37:09.072Z,14.10
2017-10-24T11:39:39.867Z,14.10
2017-10-24T11:42:08.802Z,14.00
2017-10-24T11:44:37.811Z,14.10
2017-10-24T11:47:07.287Z,14.10
2017-10-24T11:49:36.347Z,14.00
2017-10-24T11:52:05.292Z,14.00
2017-10-24T11:54:34.655Z,13.80
2017-10-24T11:57:03.599Z,13.90
2017-10-24T11:59:32.660Z,14.00
2017-10-24T12:02:01.812Z,14.00
2017-10-24T12:04:30.845Z,13.90
2017-10-24T12:06:59.790Z,14.00
2017-10-24T12:09:29.599Z,14.00
2017-10-24T12:11:58.542Z,14.10
2017-10-24T12:14:27.551Z,14.10
2017-10-24T12:16:56.522Z,11.50
2017-10-24T12:19:25.536Z,14.10
2017-10-24T12:21:54.529Z,14.10
2017-10-24T12:24:23.516Z,14.00
2017-10-24T12:26:52.472Z,14.10
2017-10-24T12:29:21.481Z,14.20
2017-10-24T12:31:50.459Z,14.20
2017-10-24T12:34:20.202Z,14.20
2017-10-24T12:36:49.242Z,14.20
2017-10-24T12:39:18.984Z,14.30
2017-10-24T12:41:48.533Z,14.30
2017-10-24T12:44:19.969Z,14.30
2017-10-24T12:46:49.738Z,14.40
2017-10-24T12:49:33.694Z,14.50
2017-10-24T12:52:02.650Z,14.50
2017-10-24T12:54:32.397Z,14.50
2017-10-24T12:57:01.409Z,14.50
2017-10-24T12:59:35.695Z,14.40
2017-10-24T13:02:05.528Z,14.40
2017-10-24T13:04:34.485Z,14.40
2017-10-24T13:07:03.469Z,14.40
2017-10-24T13:09:33.202Z,14.40
2017-10-24T13:12:02.170Z,14.40
2017-10-24T13:14:31.883Z,14.40
2017-10-24T13:17:00.979Z,14.40
2017-10-24T13:19:29.941Z,14.40
2017-10-24T13:21:58.928Z,14.40
2017-10-24T13:24:27.873Z,14.50
2017-10-24T13:26:57.642Z,14.50
2017-10-24T13:29:26.604Z,14.50
2017-10-24T13:31:56.429Z,14.50
2017-10-24T13:34:25.450Z,14.60
2017-10-24T13:36:55.212Z,14.60
2017-10-24T13:39:24.211Z,14.40
2017-10-24T13:41:53.261Z,14.40
2017-10-24T13:44:22.236Z,14.40
2017-10-24T13:46:51.979Z,14.50
2017-10-24T13:49:20.958Z,14.50
2017-10-24T13:51:49.940Z,14.40
2017-10-24T13:54:19.708Z,14.40
2017-10-24T13:56:48.692Z,14.50
2017-10-24T13:59:18.075Z,14.50
2017-10-24T14:01:47.094Z,14.60
2017-10-24T14:04:30.982Z,14.60
2017-10-24T14:07:05.514Z,14.50
2017-10-24T14:09:40.087Z,14.50
2017-10-24T14:12:09.062Z,14.50
2017-10-24T14:14:38.766Z,14.50
2017-10-24T14:17:07.726Z,14.50
2017-10-24T14:19:37.934Z,14.50
2017-10-24T14:22:06.996Z,14.50
2017-10-24T14:24:36.191Z,14.70
2017-10-24T14:27:05.189Z,14.70
2017-10-24T14:29:34.913Z,14.70
2017-10-24T14:32:04.673Z,14.60
2017-10-24T14:34:33.614Z,14.60
2017-10-24T14:37:03.376Z,14.70
2017-10-24T14:39:32.336Z,14.60
2017-10-24T14:42:01.741Z,14.80
2017-10-24T14:44:30.740Z,14.70
2017-10-24T14:46:59.700Z,14.70
2017-10-24T14:49:29.483Z,14.70
2017-10-24T14:51:58.434Z,14.60
2017-10-24T14:54:27.448Z,14.60
2017-10-24T14:56:56.427Z,14.60
2017-10-24T14:59:25.441Z,14.50
2017-10-24T15:01:54.440Z,14.50
2017-10-24T15:04:23.873Z,14.50
2017-10-24T15:06:52.886Z,14.50
2017-10-24T15:09:21.844Z,14.60
2017-10-24T15:11:51.578Z,14.60
2017-10-24T15:14:20.629Z,14.50
2017-10-24T15:16:50.018Z,14.50
2017-10-24T15:19:19.414Z,14.40
2017-10-24T15:21:48.385Z,14.50
2017-10-24T15:24:18.869Z,14.50
2017-10-24T15:26:47.798Z,14.50
2017-10-24T15:29:16.832Z,14.50
2017-10-24T15:31:45.817Z,14.50
2017-10-24T15:34:15.295Z,14.50
2017-10-24T15:36:45.697Z,14.50
2017-10-24T15:39:15.133Z,14.50
2017-10-24T15:41:44.837Z,14.50
2017-10-24T15:44:13.895Z,14.50
2017-10-24T15:46:43.677Z,14.50
2017-10-24T15:49:12.735Z,14.40
2017-10-24T15:51:42.582Z,14.50
2017-10-24T15:54:11.606Z,14.50
2017-10-24T15:56:41.393Z,14.50
2017-10-24T15:59:11.358Z,14.50
2017-10-24T16:01:41.176Z,14.50
2017-10-24T16:04:10.489Z,14.50
2017-10-24T16:06:39.466Z,14.50
2017-10-24T16:09:08.464Z,14.50
2017-10-24T16:11:37.429Z,14.50
2017-10-24T16:14:06.368Z,14.60
2017-10-24T16:16:35.738Z,14.60
2017-10-24T16:19:04.675Z,14.60
2017-10-24T16:21:33.650Z,14.60
2017-10-24T16:24:02.608Z,14.60
2017-10-24T16:26:31.585Z,14.60
2017-10-24T16:29:00.529Z,14.60
2017-10-24T16:31:30.264Z,14.60
2017-10-24T16:33:59.221Z,14.60
2017-10-24T16:36:28.584Z,14.70
2017-10-24T16:38:57.513Z,14.70
2017-10-24T16:41:26.504Z,14.80
2017-10-24T16:43:55.604Z,14.70
2017-10-24T16:46:24.683Z,14.70
2017-10-24T16:48:53.701Z,14.80
2017-10-24T16:51:22.656Z,14.70
2017-10-24T16:53:51.685Z,14.70
2017-10-24T16:56:20.640Z,15.70
2017-10-24T16:58:49.659Z,14.70
2017-10-24T17:01:18.611Z,14.70
2017-10-24T17:03:47.987Z,14.70
2017-10-24T17:06:17.381Z,14.70
2017-10-24T17:08:47.110Z,14.80
2017-10-24T17:11:16.140Z,14.70
2017-10-24T17:13:45.141Z,14.70
2017-10-24T17:16:14.117Z,14.80
2017-10-24T17:18:43.166Z,14.80
2017-10-24T17:21:12.972Z,14.80
2017-10-24T17:23:42.065Z,14.80
2017-10-24T17:26:11.058Z,14.90
2017-10-24T17:28:40.016Z,15.00
2017-10-24T17:31:09.009Z,14.90
2017-10-24T17:33:37.971Z,14.90
2017-10-24T17:36:06.951Z,14.90
2017-10-24T17:38:35.944Z,14.90
2017-10-24T17:41:04.922Z,14.90
2017-10-24T17:43:34.638Z,14.90
2017-10-24T17:46:03.709Z,15.00
2017-10-24T17:48:33.433Z,15.00
2017-10-24T17:51:02.437Z,15.00
2017-10-24T17:53:31.370Z,14.90
2017-10-24T17:56:00.369Z,15.00
2017-10-24T17:58:29.360Z,15.00
2017-10-24T18:00:58.378Z,15.00
2017-10-24T18:03:27.346Z,15.00
2017-10-24T18:05:56.421Z,15.00
2017-10-24T18:08:25.375Z,15.00
2017-10-24T18:10:55.113Z,15.00
2017-10-24T18:13:24.116Z,15.00
2017-10-24T18:15:53.089Z,15.00
2017-10-24T18:18:22.096Z,15.00
2017-10-24T18:20:51.086Z,15.00
2017-10-24T18:23:20.032Z,15.10
2017-10-24T18:25:49.030Z,15.10
2017-10-24T18:28:18.417Z,15.10
2017-10-24T18:30:48.226Z,15.10
2017-10-24T18:33:17.957Z,15.20
2017-10-24T18:35:47.340Z,15.20
2017-10-24T18:38:16.438Z,15.20
2017-10-24T18:40:46.223Z,15.20
2017-10-24T18:43:15.237Z,15.00
2017-10-24T18:45:45.006Z,15.10
2017-10-24T18:48:13.980Z,15.10
2017-10-24T18:50:46.848Z,15.20
2017-10-24T18:53:15.873Z,15.30
2017-10-24T18:55:44.879Z,15.30
2017-10-24T18:58:13.907Z,15.30
2017-10-24T19:00:43.758Z,15.30
2017-10-24T19:03:12.761Z,15.30
2017-10-24T19:05:41.756Z,15.30
2017-10-24T19:08:11.035Z,15.30
2017-10-24T19:10:40.068Z,15.40
2017-10-24T19:13:09.084Z,15.40
2017-10-24T19:15:38.867Z,15.50
2017-10-24T19:18:07.908Z,15.40
2017-10-24T19:20:36.926Z,15.50
2017-10-24T19:23:05.943Z,15.50
2017-10-24T19:25:34.970Z,15.50
2017-10-24T19:28:05.491Z,15.50
2017-10-24T19:30:35.365Z,15.50
2017-10-24T19:33:04.790Z,15.50
2017-10-24T19:35:33.819Z,15.50
2017-10-24T19:38:02.794Z,15.50
2017-10-24T19:40:33.500Z,15.50
2017-10-24T19:43:02.551Z,15.50
2017-10-24T19:45:31.575Z,15.50
2017-10-24T19:48:01.965Z,15.50
2017-10-24T19:50:31.041Z,15.50
2017-10-24T19:53:00.416Z,15.50
2017-10-24T19:55:30.005Z,15.60
2017-10-24T19:57:59.104Z,15.70
2017-10-24T20:00:28.168Z,15.60
2017-10-24T20:02:57.205Z,15.70
2017-10-24T20:05:26.658Z,15.60
2017-10-24T20:07:55.689Z,15.50
2017-10-24T20:10:24.795Z,15.60
2017-10-24T20:12:55.493Z,15.60
2017-10-24T20:15:24.579Z,15.80
2017-10-24T20:17:53.955Z,15.70
2017-10-24T20:20:22.945Z,15.80
2017-10-24T20:22:53.060Z,15.80
2017-10-24T20:25:22.438Z,15.70
2017-10-24T20:27:52.205Z,15.60
2017-10-24T20:30:21.195Z,15.70
2017-10-24T20:32:50.132Z,15.70
2017-10-24T20:35:19.477Z,15.80
2017-10-24T20:37:48.463Z,15.70
2017-10-24T20:40:18.276Z,15.60
2017-10-24T20:42:48.384Z,15.60
2017-10-24T20:45:17.409Z,15.70
2017-10-24T20:47:47.155Z,15.70
2017-10-24T20:50:16.162Z,15.70
2017-10-24T20:52:48.035Z,15.70
2017-10-24T20:55:17.105Z,15.70
2017-10-24T20:57:46.854Z,15.70
2017-10-24T21:00:15.846Z,15.70
2017-10-24T21:02:45.477Z,15.70
2017-10-24T21:05:14.466Z,15.70
2017-10-24T21:07:43.875Z,15.70
2017-10-24T21:10:12.831Z,15.70
2017-10-24T21:12:42.607Z,15.60
2017-10-24T21:15:12.396Z,15.70
2017-10-24T21:17:41.498Z,15.80
2017-10-24T21:20:10.909Z,15.60
2017-10-24T21:22:40.618Z,15.60
2017-10-24T21:25:10.345Z,15.70
2017-10-24T21:27:39.307Z,15.80
2017-10-24T21:30:08.325Z,15.70
2017-10-24T21:32:37.283Z,15.70
2017-10-24T21:35:06.241Z,15.70
2017-10-24T21:37:35.705Z,15.80
2017-10-24T21:40:05.488Z,15.80
2017-10-24T21:42:34.777Z,15.70
2017-10-24T21:45:04.528Z,15.70
2017-10-24T21:47:33.472Z,15.80
2017-10-24T21:50:02.484Z,15.80
2017-10-24T21:52:31.471Z,15.80
2017-10-24T21:55:00.396Z,15.80
2017-10-24T21:57:29.341Z,15.80
2017-10-24T21:59:59.737Z,15.80
2017-10-24T22:02:29.459Z,15.80
2017-10-24T22:04:58.865Z,15.80
2017-10-24T22:07:28.583Z,15.80
2017-10-24T22:09:57.677Z,15.80
2017-10-24T22:12:26.611Z,15.90
2017-10-24T22:14:55.562Z,15.80
2017-10-24T22:17:24.541Z,15.80
2017-10-24T22:19:53.501Z,15.80
2017-10-24T22:22:22.441Z,15.90
2017-10-24T22:24:51.445Z,15.90
2017-10-24T22:27:20.401Z,15.80
2017-10-24T22:29:49.770Z,15.80
2017-10-24T22:32:18.734Z,15.70
2017-10-24T22:34:47.733Z,15.70
2017-10-24T22:37:16.714Z,15.70
2017-10-24T22:39:45.749Z,15.80
2017-10-24T22:42:14.696Z,15.70
2017-10-24T22:44:44.424Z,15.80
2017-10-24T22:47:14.231Z,15.70
2017-10-24T22:49:43.630Z,15.60
2017-10-24T22:52:13.392Z,15.70
2017-10-24T22:54:43.129Z,15.70
2017-10-24T22:57:13.588Z,15.70
2017-10-24T22:59:43.320Z,15.70
2017-10-24T23:02:12.324Z,15.70
2017-10-24T23:04:41.738Z,15.70
2017-10-24T23:07:10.774Z,15.80
2017-10-24T23:09:40.516Z,15.70
2017-10-24T23:12:09.479Z,15.90
2017-10-24T23:14:38.840Z,15.80
2017-10-24T23:17:08.567Z,15.80
2017-10-24T23:19:37.514Z,15.90
2017-10-24T23:22:06.473Z,15.90
2017-10-24T23:24:35.853Z,17.20
2017-10-24T23:27:04.799Z,15.80
2017-10-24T23:29:33.849Z,15.80
2017-10-24T23:32:03.611Z,15.90
2017-10-24T23:34:32.656Z,15.90
2017-10-24T23:37:01.704Z,15.90
2017-10-24T23:39:30.672Z,15.90
2017-10-24T23:41:59.645Z,15.90
2017-10-24T23:44:28.595Z,15.80
2017-10-24T23:46:57.705Z,15.90
2017-10-24T23:49:27.415Z,15.80
2017-10-24T23:51:57.197Z,15.90
2017-10-24T23:54:26.152Z,15.90
2017-10-24T23:56:55.157Z,15.80
2017-10-24T23:59:25.330Z,15.80
